Terminal Aerodrome Forecast
Issued by NWS

Current Version | Previous Version | Text Only | Print | Product List | Glossary On
Versions: 1 2 3 4 5 6 7 8 9 10 11 12 13 14 15
000
FTPA31 PHFO 231132
TAFHKO
TAF
PHKO 231132Z 2312/2412 12005KT P6SM FEW030 FEW060
     FM232000 28011KT P6SM FEW035 SCT060
     FM240700 05008KT P6SM FEW030 SCT050 BKN250=

USA.gov is the U.S. government's official web portal to all federal, state and local government web resources and services.